Time;durP1;ratioP1;P1;durP2;ratioP2;P2;SDS_P1;SDS_P2;PMS_P1;PMS_P2;Temp;Humidity;BMP_temperature;BMP_pressure;BME280_temperature;BME280_humidity;BME280_pressure;Samples;Min_cycle;Max_cycle;Signal;HPM_P1;HPM_P2
2022/01/27 00:04:35;;;;;;;4.72;1.27;;;;;;;20.50;30.80;102959.78;4231058;28;20035;-44
2022/01/27 00:06:08;;;;;;;5.07;1.70;;;;;;;20.48;30.91;102965.59;4222885;28;20048;-44
2022/01/27 00:08:14;;;;;;;5.13;1.10;;;;;;;20.46;30.79;102969.63;4229955;28;20536;-44
2022/01/27 00:10:41;;;;;;;3.85;1.20;;;;;;;20.45;30.57;102984.63;4229129;28;20097;-47
2022/01/27 00:12:43;;;;;;;2.72;1.00;;;;;;;20.43;31.00;102978.41;4230525;28;20019;-45
2022/01/27 00:14:47;;;;;;;3.35;1.05;;;;;;;20.40;30.74;102981.69;4229490;28;20093;-46
2022/01/27 00:16:55;;;;;;;3.10;0.93;;;;;;;20.31;30.89;102979.19;4229678;28;20093;-44
2022/01/27 00:18:58;;;;;;;3.83;1.08;;;;;;;20.39;30.84;102999.41;4229211;28;20528;-46
2022/01/27 00:20:59;;;;;;;1.75;0.95;;;;;;;20.39;30.98;102999.41;4229520;28;20085;-45
2022/01/27 00:23:01;;;;;;;1.60;1.00;;;;;;;20.45;31.05;103006.88;4229068;28;20360;-45
2022/01/27 00:25:04;;;;;;;2.40;1.05;;;;;;;20.47;31.04;103001.91;4212478;28;20036;-46
2022/01/27 00:27:06;;;;;;;3.65;1.17;;;;;;;20.47;30.96;103011.13;4229439;28;20044;-45
2022/01/27 00:29:07;;;;;;;2.60;1.10;;;;;;;20.41;30.91;103005.63;4228881;28;20043;-47
2022/01/27 00:31:09;;;;;;;2.33;0.98;;;;;;;20.44;30.86;103005.16;4229401;28;20032;-46
2022/01/27 00:33:11;;;;;;;4.85;1.95;;;;;;;20.43;31.09;103020.13;4228950;28;20104;-45
2022/01/27 00:35:12;;;;;;;2.45;1.10;;;;;;;20.39;30.85;103004.97;4230173;28;20364;-46
2022/01/27 00:37:14;;;;;;;2.10;1.13;;;;;;;20.41;30.84;103017.59;4230557;28;20428;-45
2022/01/27 00:39:15;;;;;;;2.75;1.35;;;;;;;20.43;30.65;103015.41;4228921;28;20420;-45
2022/01/27 00:41:19;;;;;;;1.38;1.10;;;;;;;20.38;30.80;103011.63;4229060;28;20043;-44
2022/01/27 00:43:22;;;;;;;3.22;1.08;;;;;;;20.45;31.07;103023.56;4229620;28;20043;-43
2022/01/27 00:45:24;;;;;;;2.80;1.23;;;;;;;20.44;30.79;103021.84;4229687;28;20069;-44
2022/01/27 00:47:26;;;;;;;1.90;1.10;;;;;;;20.41;31.00;103025.09;4231500;28;20040;-50
2022/01/27 00:49:27;;;;;;;5.15;1.25;;;;;;;20.46;30.55;103028.03;4232534;28;20039;-45
2022/01/27 00:51:34;;;;;;;2.88;1.20;;;;;;;20.46;30.61;103030.81;4233691;28;20122;-46
2022/01/27 00:56:17;;;;;;;1.30;0.88;;;;;;;20.48;30.57;103032.34;4210225;28;20040;-48
2022/01/27 01:00:48;;;;;;;3.75;1.10;;;;;;;20.49;30.56;103031.25;4233114;28;20528;-47
2022/01/27 01:05:04;;;;;;;3.70;1.13;;;;;;;20.48;30.39;103031.44;4233427;28;20028;-45
2022/01/27 01:07:07;;;;;;;3.08;1.00;;;;;;;20.48;30.50;103023.09;4232448;28;20105;-49
2022/01/27 01:10:24;;;;;;;1.58;1.00;;;;;;;20.47;30.42;103026.94;4231750;28;20035;-46
2022/01/27 01:12:01;;;;;;;2.72;1.10;;;;;;;20.43;30.68;103020.13;4222424;28;20040;-46
2022/01/27 01:16:02;;;;;;;2.58;0.90;;;;;;;20.45;30.36;103035.53;4233405;28;20020;-45
2022/01/27 01:18:18;;;;;;;;;;;;;;;20.43;30.25;103037.66;4232369;28;20142;-44
2022/01/27 01:30:08;;;;;;;1.30;0.80;;;;;;;20.46;30.18;103058.63;4232673;28;20104;-48
2022/01/27 01:32:26;;;;;;;2.72;1.00;;;;;;;20.43;30.46;103050.72;4231784;28;20096;-45
2022/01/27 01:34:32;;;;;;;0.75;0.70;;;;;;;20.43;30.19;103053.50;4232147;28;20085;-46
2022/01/27 01:36:36;;;;;;;2.08;0.90;;;;;;;20.43;29.97;103053.50;4232808;28;20036;-45
2022/01/27 01:38:45;;;;;;;2.13;0.85;;;;;;;20.40;29.98;103054.81;4232795;28;20096;-45
2022/01/27 01:40:50;;;;;;;0.95;0.80;;;;;;;20.43;29.88;103059.06;4231460;28;20035;-45
2022/01/27 01:42:51;;;;;;;;;;;;;;;20.40;30.24;103053.97;4232035;28;20109;-44
2022/01/27 01:44:53;;;;;;;1.58;0.90;;;;;;;20.45;30.03;103051.38;4232054;28;19911;-47
2022/01/27 01:46:55;;;;;;;1.05;0.93;;;;;;;20.45;29.94;103051.38;4231706;28;20043;-48
2022/01/27 01:48:57;;;;;;;3.17;1.02;;;;;;;20.44;29.72;103050.53;4231172;28;20428;-46
2022/01/27 01:50:58;;;;;;;1.83;1.10;;;;;;;20.35;29.68;103039.91;4232451;28;20040;-45
2022/01/27 01:53:03;;;;;;;2.17;0.90;;;;;;;20.42;30.02;103061.00;4231244;28;20077;-50
2022/01/27 01:55:06;;;;;;;;;;;;;;;20.37;30.07;103055.25;4233214;28;20077;-46
2022/01/27 01:57:08;;;;;;;2.10;0.90;;;;;;;20.45;29.89;103065.28;4232016;28;20320;-48
2022/01/27 01:59:09;;;;;;;2.47;1.00;;;;;;;20.45;29.88;103068.06;4230145;28;20125;-45
2022/01/27 02:01:11;;;;;;;0.93;0.90;;;;;;;20.43;29.65;103064.63;4232672;28;20040;-46
2022/01/27 02:03:12;;;;;;;1.63;0.90;;;;;;;20.39;29.94;103064.25;4232471;28;20085;-45
2022/01/27 02:05:14;;;;;;;2.10;1.25;;;;;;;20.40;29.81;103059.53;4230544;28;20051;-47
2022/01/27 02:07:50;;;;;;;1.98;1.20;;;;;;;20.36;29.93;103058.28;4231309;28;20040;-48
2022/01/27 02:19:04;;;;;;;1.75;1.13;;;;;;;20.37;29.62;103076.66;4234163;28;20096;-47
2022/01/27 02:21:06;;;;;;;1.50;0.75;;;;;;;20.38;29.71;103076.44;4231379;28;20043;-48
2022/01/27 02:23:10;;;;;;;1.35;0.90;;;;;;;20.34;29.68;103077.94;4230851;28;20535;-47
2022/01/27 02:25:11;;;;;;;1.63;0.87;;;;;;;20.34;29.39;103072.38;4231373;28;20035;-48
2022/01/27 02:27:16;;;;;;;0.95;0.80;;;;;;;20.34;29.30;103074.31;4232198;28;20376;-47
2022/01/27 02:29:20;;;;;;;1.10;1.00;;;;;;;20.33;29.28;103075.41;4213490;28;20032;-46
2022/01/27 02:31:21;;;;;;;1.35;1.02;;;;;;;20.37;29.66;103083.06;4230936;28;20084;-46
2022/01/27 02:33:33;;;;;;;1.48;0.90;;;;;;;20.35;29.58;103084.41;4232456;28;20031;-47
2022/01/27 02:35:35;;;;;;;1.38;0.70;;;;;;;20.36;29.32;103074.97;4231054;28;20043;-47
2022/01/27 02:37:37;;;;;;;1.70;0.90;;;;;;;20.36;29.41;103080.53;4231438;28;20462;-44
2022/01/27 02:39:41;;;;;;;1.13;0.80;;;;;;;20.35;29.30;103084.41;4231936;28;20454;-47
2022/01/27 02:42:10;;;;;;;1.13;0.80;;;;;;;20.36;29.23;103074.97;4232259;28;20044;-47
2022/01/27 02:44:46;;;;;;;2.40;1.10;;;;;;;20.34;29.15;103082.66;4230526;28;20420;-45
2022/01/27 02:46:50;;;;;;;2.85;0.80;;;;;;;20.36;29.42;103086.09;4230479;28;20116;-46
2022/01/27 02:48:52;;;;;;;1.60;1.07;;;;;;;20.36;29.27;103080.53;4231467;28;20057;-49
2022/01/27 02:50:53;;;;;;;2.13;1.13;;;;;;;20.37;29.04;103082.22;4231974;28;20268;-46
2022/01/27 02:52:54;;;;;;;1.27;0.90;;;;;;;20.37;29.39;103090.56;4231179;28;20043;-45
2022/01/27 02:54:56;;;;;;;1.17;0.70;;;;;;;20.36;29.08;103092.50;4230422;28;20096;-45
2022/01/27 02:56:57;;;;;;;1.60;0.82;;;;;;;20.35;29.01;103089.97;4231720;28;20035;-47
2022/01/27 02:58:59;;;;;;;1.77;1.00;;;;;;;20.36;29.04;103097.22;4231654;28;20031;-44
2022/01/27 03:01:00;;;;;;;1.50;1.02;;;;;;;20.34;29.19;103091.00;4230468;28;20036;-45
2022/01/27 03:03:02;;;;;;;1.48;0.70;;;;;;;20.38;29.14;103089.47;4230317;28;20416;-46
2022/01/27 03:05:07;;;;;;;1.17;0.93;;;;;;;20.37;29.00;103093.34;4230550;28;20039;-47
2022/01/27 03:07:08;;;;;;;2.15;1.10;;;;;;;20.37;28.95;103098.91;4230273;28;20043;-46
2022/01/27 03:09:10;;;;;;;0.95;0.80;;;;;;;20.37;28.85;103098.91;4231149;28;20031;-50
2022/01/27 03:11:16;;;;;;;1.58;1.15;;;;;;;20.34;28.86;103094.63;4230114;28;20044;-45
2022/01/27 03:13:17;;;;;;;3.15;1.20;;;;;;;20.36;29.22;103088.88;4230388;28;20092;-45
2022/01/27 03:15:18;;;;;;;1.60;1.00;;;;;;;20.35;28.88;103101.06;4230455;28;20024;-46
2022/01/27 03:17:20;;;;;;;1.27;1.02;;;;;;;20.35;29.15;103096.38;4230585;28;20043;-44
2022/01/27 03:19:21;;;;;;;1.58;1.30;;;;;;;20.34;29.18;103097.41;4229753;28;20372;-49
2022/01/27 03:21:23;;;;;;;1.25;1.15;;;;;;;20.34;28.89;103094.63;4230688;28;20425;-45
2022/01/27 03:23:24;;;;;;;0.70;0.70;;;;;;;20.31;28.91;103095.97;4230490;28;20044;-45
2022/01/27 03:25:25;;;;;;;2.50;1.10;;;;;;;20.33;28.96;103098.50;4230446;28;20040;-47
2022/01/27 03:27:28;;;;;;;1.52;1.23;;;;;;;20.33;29.05;103101.28;4230070;28;20093;-44
2022/01/27 03:29:29;;;;;;;1.08;0.98;;;;;;;20.31;28.84;103093.19;4229834;28;20483;-45
2022/01/27 03:31:31;;;;;;;1.83;1.08;;;;;;;20.30;28.96;103108.16;4230025;28;20138;-46
2022/01/27 03:33:32;;;;;;;1.67;0.90;;;;;;;20.30;28.91;103105.38;4231110;28;20100;-44
2022/01/27 03:35:33;;;;;;;1.15;1.05;;;;;;;20.29;28.92;103098.09;4230301;28;20503;-48
2022/01/27 03:37:35;;;;;;;2.20;1.05;;;;;;;20.28;28.92;103090.84;4229867;28;20096;-47
2022/01/27 03:39:38;;;;;;;1.10;1.00;;;;;;;20.29;28.64;103098.09;4229736;28;20035;-45
2022/01/27 03:41:46;;;;;;;1.00;0.80;;;;;;;20.28;28.82;103101.09;4229772;28;20483;-45
2022/01/27 03:43:50;;;;;;;0.80;0.80;;;;;;;20.26;28.84;103097.72;4230412;28;20100;-45
2022/01/27 03:45:51;;;;;;;1.60;1.08;;;;;;;20.23;28.75;103098.16;4230924;28;20085;-47
2022/01/27 03:47:53;;;;;;;0.90;0.85;;;;;;;20.23;28.77;103095.38;4229627;28;20040;-49
2022/01/27 03:49:54;;;;;;;1.77;1.00;;;;;;;20.22;29.10;103094.53;4229605;28;20047;-45
2022/01/27 03:51:59;;;;;;;1.95;1.10;;;;;;;20.17;29.39;103093.50;4229853;28;20093;-47
2022/01/27 03:54:01;;;;;;;1.02;0.95;;;;;;;20.16;29.33;103101.00;4230895;28;20088;-50
2022/01/27 03:56:02;;;;;;;1.70;0.80;;;;;;;20.11;29.38;103106.34;4230849;28;20041;-47
2022/01/27 03:58:04;;;;;;;1.40;1.00;;;;;;;20.08;29.58;103095.69;4229493;28;20094;-46
2022/01/27 04:00:07;;;;;;;1.42;1.10;;;;;;;20.07;29.38;103099.56;4230520;28;20400;-46
2022/01/27 04:02:08;;;;;;;1.30;1.10;;;;;;;20.06;29.81;103095.88;4229872;28;20112;-46
2022/01/27 04:04:10;;;;;;;1.10;0.80;;;;;;;20.05;29.39;103096.97;4229459;28;20546;-46
2022/01/27 04:06:11;;;;;;;0.95;0.90;;;;;;;20.07;29.62;103099.56;4229779;28;20096;-44
2022/01/27 04:08:13;;;;;;;1.50;1.00;;;;;;;20.06;29.62;103097.81;4229467;28;20039;-46
2022/01/27 04:10:14;;;;;;;1.55;0.90;;;;;;;20.07;29.72;103091.22;4229755;28;20429;-46
2022/01/27 04:12:16;;;;;;;1.65;1.27;;;;;;;20.08;29.63;103084.56;4230644;28;20036;-49
2022/01/27 04:14:18;;;;;;;1.10;1.00;;;;;;;20.07;29.59;103088.44;4229548;28;20096;-44
2022/01/27 04:16:19;;;;;;;2.13;1.20;;;;;;;20.08;29.66;103101.25;4229711;28;20097;-45
2022/01/27 04:18:20;;;;;;;1.25;0.80;;;;;;;20.08;29.96;103098.47;4230128;28;20040;-45
2022/01/27 04:20:22;;;;;;;1.35;1.13;;;;;;;20.09;29.56;103088.19;4229494;28;20437;-48
2022/01/27 04:22:23;;;;;;;0.90;0.82;;;;;;;20.03;29.53;103070.50;4232754;28;20121;-46
2022/01/27 04:24:25;;;;;;;1.60;1.13;;;;;;;20.10;29.46;103089.91;4233975;28;20040;-48
2022/01/27 04:26:35;;;;;;;1.23;0.90;;;;;;;20.10;29.68;103089.91;4234290;28;20035;-47
2022/01/27 04:28:37;;;;;;;1.05;0.90;;;;;;;20.12;29.45;103091.41;4232933;28;20043;-47
2022/01/27 04:30:39;;;;;;;1.75;0.90;;;;;;;20.12;29.35;103087.75;4232262;28;20081;-48
2022/01/27 04:32:50;;;;;;;1.65;0.98;;;;;;;20.11;29.62;103095.22;4232701;28;20039;-46
2022/01/27 04:34:53;;;;;;;3.42;1.40;;;;;;;20.10;29.52;103098.22;4232611;28;20046;-49
2022/01/27 04:36:56;;;;;;;1.00;0.90;;;;;;;20.08;29.36;103095.69;4233181;28;20100;-47
2022/01/27 04:41:16;;;;;;;1.38;1.10;;;;;;;20.08;29.59;103090.13;4234626;28;20027;-47
2022/01/27 04:43:35;;;;;;;1.27;0.95;;;;;;;20.09;29.75;103099.31;4232723;28;20059;-47
2022/01/27 04:45:53;;;;;;;2.17;1.10;;;;;;;20.11;29.27;103111.91;4233755;27;20048;-46
2022/01/27 04:48:04;;;;;;;1.20;1.10;;;;;;;20.10;29.59;103104.66;4217070;28;20036;-45
2022/01/27 04:50:06;;;;;;;1.38;1.13;;;;;;;20.10;29.22;103099.09;4220039;28;20044;-47
2022/01/27 04:52:08;;;;;;;1.10;0.95;;;;;;;20.08;29.53;103101.25;4210081;28;20044;-46
2022/01/27 04:54:25;;;;;;;1.38;1.23;;;;;;;20.08;29.54;103103.19;4233156;28;20136;-46
2022/01/27 04:56:30;;;;;;;1.33;1.15;;;;;;;20.06;29.25;103100.59;4233518;28;20049;-46
2022/01/27 04:58:33;;;;;;;1.27;1.10;;;;;;;20.07;29.51;103099.56;4229234;28;20175;-48
2022/01/27 05:00:35;;;;;;;1.17;1.05;;;;;;;20.06;29.39;103095.03;4222888;27;20287;-49
2022/01/27 05:02:50;;;;;;;1.20;1.10;;;;;;;20.05;29.60;103102.53;4205107;28;20061;-46
2022/01/27 05:04:52;;;;;;;1.35;0.90;;;;;;;20.06;29.28;103107.00;4226073;28;20035;-44
2022/01/27 05:06:53;;;;;;;1.60;1.30;;;;;;;20.05;29.24;103112.81;4226251;28;20040;-48
2022/01/27 05:08:55;;;;;;;1.40;1.20;;;;;;;20.03;29.40;103114.97;4215551;28;20043;-46
2022/01/27 05:11:10;;;;;;;2.05;0.85;;;;;;;20.03;29.70;103115.81;4222360;28;20043;-45
2022/01/27 05:13:18;;;;;;;1.48;1.30;;;;;;;20.04;29.40;103119.44;4232929;28;20047;-45
2022/01/27 05:15:19;;;;;;;3.17;1.13;;;;;;;19.87;29.34;103087.69;4231883;28;20036;-45
2022/01/27 05:17:21;;;;;;;1.42;0.98;;;;;;;20.04;29.25;103116.66;4232175;28;20092;-45
2022/01/27 05:19:22;;;;;;;1.77;1.13;;;;;;;19.96;29.52;103100.25;4232080;28;20040;-43
2022/01/27 05:21:25;;;;;;;2.53;1.05;;;;;;;20.03;29.49;103115.81;4226655;28;20527;-46
2022/01/27 05:23:26;;;;;;;1.95;1.25;;;;;;;20.05;29.68;103123.91;4226298;28;20040;-48
2022/01/27 05:25:30;;;;;;;1.45;1.08;;;;;;;20.03;29.48;103120.53;4215955;28;20032;-46
2022/01/27 05:27:31;;;;;;;1.55;1.17;;;;;;;20.04;29.40;103122.22;4222347;28;20431;-46
2022/01/27 05:29:33;;;;;;;1.00;0.90;;;;;;;20.03;29.62;103126.94;4232878;28;20085;-46
2022/01/27 05:31:35;;;;;;;3.45;1.35;;;;;;;19.93;29.43;103112.66;4232995;28;20020;-47
2022/01/27 05:33:36;;;;;;;1.42;1.13;;;;;;;20.02;29.33;103129.91;4229728;28;20385;-48
2022/01/27 05:35:38;;;;;;;1.20;1.10;;;;;;;20.00;29.45;103126.50;4232202;28;20040;-46
2022/01/27 05:37:40;;;;;;;1.00;0.90;;;;;;;20.02;29.34;103141.03;4231662;28;20145;-47
2022/01/27 05:39:42;;;;;;;1.27;0.95;;;;;;;20.00;29.58;103127.38;4225044;28;20479;-49
2022/01/27 05:41:43;;;;;;;1.73;1.17;;;;;;;20.02;29.39;103124.34;4214459;28;20036;-49
2022/01/27 05:43:45;;;;;;;1.30;0.90;;;;;;;20.01;29.18;103126.28;4213175;28;20051;-48
2022/01/27 05:45:46;;;;;;;2.72;0.90;;;;;;;20.01;29.44;103111.53;4215502;28;20036;-46
2022/01/27 05:47:48;;;;;;;1.33;1.02;;;;;;;20.01;29.09;103117.09;4215511;28;20490;-46
2022/01/27 05:49:49;;;;;;;0.77;0.70;;;;;;;19.97;29.13;103116.69;4215363;28;20090;-46
2022/01/27 05:51:54;;;;;;;1.90;1.20;;;;;;;19.99;29.36;103108.16;4217251;28;20028;-47
2022/01/27 05:53:56;;;;;;;2.72;1.33;;;;;;;19.99;29.09;103109.00;4230855;28;20036;-46
2022/01/27 05:55:58;;;;;;;1.15;0.85;;;;;;;19.98;29.09;103100.88;4228844;28;20093;-45
2022/01/27 05:57:59;;;;;;;1.20;0.90;;;;;;;19.98;29.35;103106.44;4216030;28;20058;-45
2022/01/27 06:00:01;;;;;;;1.75;1.20;;;;;;;19.98;29.32;103114.78;4218543;28;20039;-44
2022/01/27 06:02:03;;;;;;;1.08;0.98;;;;;;;19.97;29.12;103111.13;4231648;28;20425;-44
2022/01/27 06:04:04;;;;;;;1.15;0.95;;;;;;;19.95;29.10;103109.66;4231145;28;20036;-51
2022/01/27 06:06:06;;;;;;;1.05;0.90;;;;;;;19.93;29.02;103109.91;4232471;28;20393;-44
2022/01/27 06:08:07;;;;;;;1.10;0.98;;;;;;;19.96;29.37;103116.91;4231898;28;20096;-46
2022/01/27 06:10:09;;;;;;;1.85;1.10;;;;;;;19.88;29.02;103103.28;4231816;28;20144;-46
2022/01/27 06:12:10;;;;;;;1.05;0.82;;;;;;;19.94;29.14;103116.31;4228840;28;20479;-46
2022/01/27 06:14:12;;;;;;;2.00;0.90;;;;;;;19.92;29.37;103112.88;4199236;28;20085;-45
2022/01/27 06:16:13;;;;;;;1.10;1.00;;;;;;;19.91;29.06;103106.47;4219064;28;20438;-44
2022/01/27 06:18:15;;;;;;;2.85;0.98;;;;;;;19.90;29.11;103106.69;4231188;28;20040;-46
2022/01/27 06:20:18;;;;;;;1.45;1.10;;;;;;;19.90;29.35;103109.47;4231867;28;20092;-46
2022/01/27 06:22:22;;;;;;;1.02;0.80;;;;;;;19.86;28.92;103091.53;4217801;28;20055;-44
2022/01/27 06:24:24;;;;;;;2.03;1.20;;;;;;;19.88;29.22;103104.13;4215857;28;20548;-43
2022/01/27 06:26:27;;;;;;;1.40;1.00;;;;;;;19.88;28.93;103094.94;4225858;28;20027;-47
2022/01/27 06:28:30;;;;;;;1.98;1.77;;;;;;;19.87;29.29;103094.09;4216422;28;20036;-45
2022/01/27 06:30:34;;;;;;;1.42;1.02;;;;;;;19.86;29.34;103097.94;4214409;28;20052;-45
2022/01/27 06:32:42;;;;;;;1.27;0.90;;;;;;;19.85;28.83;103098.19;4216466;28;20036;-44
2022/01/27 06:34:43;;;;;;;1.40;1.13;;;;;;;19.85;28.99;103089.84;4231794;28;20032;-47
2022/01/27 06:36:45;;;;;;;1.15;1.05;;;;;;;19.82;29.12;103087.50;4231673;28;20039;-45
2022/01/27 06:38:49;;;;;;;1.40;1.13;;;;;;;19.83;29.18;103100.31;4214997;28;20036;-44
2022/01/27 06:40:51;;;;;;;1.27;1.00;;;;;;;19.79;28.92;103095.22;4214655;28;20402;-43
2022/01/27 06:42:52;;;;;;;1.63;1.13;;;;;;;19.78;28.95;103106.53;4214472;28;20036;-46
2022/01/27 06:44:54;;;;;;;3.28;1.08;;;;;;;19.78;28.94;103112.09;4213303;28;20108;-47
2022/01/27 06:46:55;;;;;;;2.00;1.30;;;;;;;19.79;29.34;103120.22;4214147;28;20047;-47
2022/01/27 06:48:56;;;;;;;2.13;1.02;;;;;;;19.79;28.91;103119.34;4214809;28;20028;-47
2022/01/27 06:51:00;;;;;;;1.13;1.00;;;;;;;19.76;29.10;103115.09;4214397;28;20051;-45
2022/01/27 06:53:02;;;;;;;1.48;1.00;;;;;;;19.77;28.94;103119.56;4214008;28;20036;-45
2022/01/27 06:55:05;;;;;;;1.40;1.00;;;;;;;19.77;29.05;103121.50;4214114;28;20036;-44
2022/01/27 06:57:06;;;;;;;1.10;0.98;;;;;;;19.68;29.04;103111.72;4215018;28;20521;-45
2022/01/27 06:59:08;;;;;;;1.10;1.00;;;;;;;19.76;29.21;103125.34;4213979;28;20044;-45
2022/01/27 07:01:09;;;;;;;1.35;1.00;;;;;;;19.73;28.93;103121.09;4217059;28;20043;-47
2022/01/27 07:03:11;;;;;;;2.55;0.90;;;;;;;19.74;29.12;103122.78;4218751;28;20032;-46
2022/01/27 07:05:15;;;;;;;1.20;0.93;;;;;;;19.73;28.95;103123.84;4230877;28;20093;-47
2022/01/27 07:07:16;;;;;;;0.98;0.90;;;;;;;19.72;28.91;103124.09;4230713;28;20389;-44
2022/01/27 07:09:18;;;;;;;1.75;1.10;;;;;;;19.73;28.89;103120.22;4229168;28;20092;-44
2022/01/27 07:11:20;;;;;;;1.40;1.20;;;;;;;19.65;29.38;103104.66;4229576;28;20366;-45
2022/01/27 07:13:21;;;;;;;1.20;1.10;;;;;;;19.67;28.98;103113.63;4229070;28;20507;-43
2022/01/27 07:15:23;;;;;;;1.25;0.88;;;;;;;19.70;29.00;103115.09;4216708;28;20032;-47
2022/01/27 07:17:25;;;;;;;1.17;0.93;;;;;;;19.70;29.32;103110.44;4222126;28;20524;-45
2022/01/27 07:19:27;;;;;;;3.67;1.20;;;;;;;19.69;29.17;103108.69;4229290;28;20085;-50
2022/01/27 07:21:28;;;;;;;1.20;1.00;;;;;;;19.70;29.27;103113.22;4214375;28;20109;-47
2022/01/27 07:23:29;;;;;;;1.48;1.17;;;;;;;19.68;29.49;103107.00;4214598;28;20077;-51
2022/01/27 07:25:31;;;;;;;1.25;0.95;;;;;;;19.67;29.19;103112.78;4222287;28;20096;-46
2022/01/27 07:27:35;;;;;;;2.08;1.20;;;;;;;19.63;29.33;103109.59;4222743;28;20048;-45
2022/01/27 07:29:40;;;;;;;2.40;1.30;;;;;;;19.64;29.51;103116.84;4214847;28;20090;-45
2022/01/27 07:31:41;;;;;;;1.95;1.10;;;;;;;19.67;29.39;103121.13;4226330;28;20121;-47
2022/01/27 07:33:42;;;;;;;1.52;1.08;;;;;;;19.66;29.15;103109.16;4228497;28;20096;-45
2022/01/27 07:35:44;;;;;;;1.55;1.10;;;;;;;19.68;29.16;103107.00;4226740;28;20024;-46
2022/01/27 07:37:46;;;;;;;1.70;1.05;;;;;;;19.68;29.21;103112.56;4222883;28;20028;-47
2022/01/27 07:39:48;;;;;;;1.30;1.05;;;;;;;19.70;28.91;103127.09;4213673;28;20430;-43
2022/01/27 07:41:50;;;;;;;1.73;1.17;;;;;;;19.70;28.92;103118.75;4221226;28;20040;-46
2022/01/27 07:43:52;;;;;;;1.45;0.82;;;;;;;19.71;28.83;103114.91;4230127;28;20101;-44
2022/01/27 07:45:55;;;;;;;2.15;1.23;;;;;;;19.73;28.97;103123.84;4231053;28;20040;-48
2022/01/27 07:47:59;;;;;;;1.15;0.90;;;;;;;19.72;28.63;103112.97;4230199;28;20429;-47
2022/01/27 07:50:01;;;;;;;1.15;1.05;;;;;;;19.74;28.53;103117.22;4230700;28;20043;-49
2022/01/27 07:52:05;;;;;;;1.48;1.30;;;;;;;19.75;28.64;103118.94;4230498;28;20036;-46
2022/01/27 07:54:07;;;;;;;1.30;1.10;;;;;;;19.70;28.58;103104.88;4230587;28;20131;-44
2022/01/27 07:56:09;;;;;;;1.73;1.10;;;;;;;19.74;28.52;103108.88;4229262;28;20035;-45
2022/01/27 07:58:10;;;;;;;1.42;1.13;;;;;;;19.76;28.76;103108.69;4229634;28;20120;-45
2022/01/27 08:00:12;;;;;;;1.45;1.27;;;;;;;19.78;28.82;103107.38;4219955;28;20105;-47
2022/01/27 08:02:13;;;;;;;1.70;1.05;;;;;;;19.77;28.46;103114.00;4214426;28;20047;-44
2022/01/27 08:04:15;;;;;;;1.40;1.30;;;;;;;19.78;28.70;103109.31;4225201;28;20114;-48
2022/01/27 08:06:16;;;;;;;0.90;0.88;;;;;;;19.77;28.61;103107.59;4219934;28;20097;-47
2022/01/27 08:08:18;;;;;;;1.10;1.00;;;;;;;19.71;28.63;103098.25;4216504;28;20043;-46
2022/01/27 08:10:19;;;;;;;1.83;1.02;;;;;;;19.78;28.75;103107.38;4222982;28;20047;-46
2022/01/27 08:12:21;;;;;;;1.30;0.90;;;;;;;19.77;28.84;103094.56;4213434;28;20044;-47
2022/01/27 08:14:22;;;;;;;1.33;0.85;;;;;;;19.73;28.49;103098.00;4217483;28;20082;-46
2022/01/27 08:16:24;;;;;;;1.20;1.10;;;;;;;19.78;28.50;103093.47;4222223;28;20093;-49
2022/01/27 08:18:25;;;;;;;1.15;1.05;;;;;;;19.78;28.79;103095.41;4216918;28;20028;-45
2022/01/27 08:20:26;;;;;;;1.50;1.10;;;;;;;19.77;28.57;103089.00;4229899;28;20052;-44
2022/01/27 08:22:28;;;;;;;1.20;1.00;;;;;;;19.77;28.75;103089.00;4219866;28;20128;-46
2022/01/27 08:24:29;;;;;;;1.45;1.17;;;;;;;19.75;28.22;103091.16;4212819;28;20040;-47
2022/01/27 08:28:42;;;;;;;1.52;1.13;;;;;;;19.75;28.33;103085.63;4227669;28;20028;-44
2022/01/27 08:30:47;;;;;;;1.95;1.20;;;;;;;19.75;28.28;103093.94;4229859;28;20047;-44
2022/01/27 08:32:57;;;;;;;1.60;1.00;;;;;;;19.75;28.72;103085.63;4228102;28;20032;-45
2022/01/27 08:34:59;;;;;;;1.40;1.30;;;;;;;19.76;28.79;103087.31;4213633;28;20040;-46
2022/01/27 08:37:03;;;;;;;2.40;1.00;;;;;;;19.74;28.55;103081.09;4213344;28;20036;-48
2022/01/27 08:39:05;;;;;;;1.88;1.10;;;;;;;19.73;28.52;103082.19;4213204;28;20044;-44
2022/01/27 08:41:06;;;;;;;1.00;0.90;;;;;;;19.74;28.38;103078.34;4213625;28;20032;-45
2022/01/27 08:43:08;;;;;;;1.55;1.20;;;;;;;19.72;28.60;103091.59;4214006;28;20060;-46
2022/01/27 08:45:18;;;;;;;1.35;1.25;;;;;;;19.73;28.21;103093.31;4216866;28;20032;-46
2022/01/27 08:47:20;;;;;;;1.10;0.85;;;;;;;19.73;28.35;103082.19;4229927;28;20559;-44
2022/01/27 08:49:24;;;;;;;1.73;1.20;;;;;;;19.71;28.38;103083.50;4229261;28;20035;-44
2022/01/27 08:51:26;;;;;;;1.52;1.20;;;;;;;19.69;28.70;103083.69;4229880;28;20043;-46
2022/01/27 08:53:29;;;;;;;1.38;1.05;;;;;;;19.69;28.61;103086.47;4230777;28;20547;-44
2022/01/27 08:55:31;;;;;;;1.50;1.40;;;;;;;19.67;28.49;103091.41;4229864;28;20039;-47
2022/01/27 08:57:32;;;;;;;1.23;0.90;;;;;;;19.68;28.56;103083.94;4230031;28;20089;-46
2022/01/27 08:59:34;;;;;;;1.52;1.10;;;;;;;19.67;28.49;103088.63;4229341;28;20093;-46
2022/01/27 09:01:36;;;;;;;1.38;1.23;;;;;;;19.67;28.56;103082.25;4228785;28;20031;-45
2022/01/27 09:03:38;;;;;;;1.50;1.05;;;;;;;19.65;28.50;103078.81;4229721;28;20043;-46
2022/01/27 09:05:40;;;;;;;1.20;1.10;;;;;;;19.64;28.74;103080.75;4218493;28;20040;-45
2022/01/27 09:07:45;;;;;;;1.70;1.10;;;;;;;19.62;28.55;103085.69;4230484;28;20425;-44
2022/01/27 09:09:46;;;;;;;1.27;1.17;;;;;;;19.64;28.48;103088.22;4228161;28;20021;-46
2022/01/27 09:11:48;;;;;;;3.67;1.27;;;;;;;19.64;28.79;103089.06;4215703;28;20036;-47
2022/01/27 09:13:52;;;;;;;2.25;1.30;;;;;;;19.64;28.79;103091.84;4215870;28;20043;-43
2022/01/27 09:15:58;;;;;;;1.60;1.10;;;;;;;19.60;28.86;103090.59;4198334;28;20048;-45
2022/01/27 09:18:00;;;;;;;1.48;0.98;;;;;;;19.60;28.53;103090.59;4221868;28;20051;-47
2022/01/27 09:20:01;;;;;;;1.58;1.40;;;;;;;19.60;28.76;103093.34;4222295;28;20113;-47
2022/01/27 09:22:11;;;;;;;1.30;1.10;;;;;;;19.59;28.59;103088.84;4215837;28;20043;-49
2022/01/27 09:24:17;;;;;;;1.52;1.20;;;;;;;19.58;28.76;103080.75;4231627;28;20044;-49
2022/01/27 09:31:01;;;;;;;1.48;0.98;;;;;;;19.54;28.29;103083.94;4203997;28;20465;-47
2022/01/27 09:33:03;;;;;;;1.10;1.00;;;;;;;19.57;28.68;103082.69;4232237;28;20039;-49
2022/01/27 09:35:05;;;;;;;1.40;1.10;;;;;;;19.53;28.88;103086.97;4225511;28;20040;-46
2022/01/27 09:37:09;;;;;;;1.55;1.05;;;;;;;19.55;28.34;103088.44;4216669;28;20090;-45
2022/01/27 09:39:11;;;;;;;1.48;1.17;;;;;;;19.49;28.63;103080.13;4220300;28;20524;-45
2022/01/27 09:41:18;;;;;;;1.45;1.30;;;;;;;19.52;28.84;103091.66;4232222;28;20031;-50
2022/01/27 09:43:20;;;;;;;2.55;1.40;;;;;;;19.52;28.90;103090.81;4229221;28;20445;-47
2022/01/27 09:45:23;;;;;;;1.40;1.30;;;;;;;19.51;28.76;103083.53;4215319;28;20109;-46
2022/01/27 09:47:30;;;;;;;2.25;1.30;;;;;;;19.45;28.67;103074.16;4215005;28;20378;-48
2022/01/27 09:49:36;;;;;;;1.52;1.20;;;;;;;19.49;28.55;103082.91;4216683;28;20124;-47
2022/01/27 09:51:43;;;;;;;1.75;1.15;;;;;;;19.48;28.34;103076.50;4222301;28;20043;-49
2022/01/27 09:53:51;;;;;;;1.83;1.33;;;;;;;19.39;28.54;103063.09;4232701;28;20397;-49
2022/01/27 09:55:55;;;;;;;1.77;1.20;;;;;;;19.40;28.73;103059.25;4215953;28;20093;-46
2022/01/27 09:57:58;;;;;;;1.23;1.13;;;;;;;19.44;28.73;103069.69;4215239;28;20108;-45
2022/01/27 10:00:00;;;;;;;1.90;1.20;;;;;;;19.43;28.87;103070.78;4223263;28;20096;-52
2022/01/27 10:02:04;;;;;;;1.42;1.05;;;;;;;19.42;28.67;103074.59;4231802;28;20188;-46
2022/01/27 10:04:07;;;;;;;1.35;1.10;;;;;;;19.43;28.86;103076.31;4228360;28;20093;-47
2022/01/27 10:06:14;;;;;;;1.60;1.10;;;;;;;19.41;28.76;103066.50;4224247;28;20032;-44
2022/01/27 10:08:18;;;;;;;2.22;1.33;;;;;;;19.41;28.76;103072.06;4215662;28;20048;-48
2022/01/27 10:10:20;;;;;;;1.93;1.23;;;;;;;19.41;28.75;103072.06;4216257;28;20035;-46
2022/01/27 10:12:32;;;;;;;1.10;0.93;;;;;;;19.40;28.89;103070.34;4216044;28;20543;-45
2022/01/27 10:14:37;;;;;;;1.40;1.13;;;;;;;19.38;28.63;103066.91;4218743;28;20048;-46
2022/01/27 10:16:42;;;;;;;1.50;1.20;;;;;;;19.37;28.40;103063.28;4222039;28;20065;-46